Time;durP1;ratioP1;P1;durP2;ratioP2;P2;SDS_P1;SDS_P2;PMS_P1;PMS_P2;Temp;Humidity;BMP_temperature;BMP_pressure;BME280_temperature;BME280_humidity;BME280_pressure;Samples;Min_cycle;Max_cycle;Signal;HPM_P1;HPM_P2
2022/10/26 00:00:26;;;;;;;72.00;20.33;;;12.80;99.90;;;;;;5019120;28;20216;-85
2022/10/26 00:02:54;;;;;;;69.93;17.13;;;12.80;99.90;;;;;;5020108;28;20401;-85
2022/10/26 00:05:20;;;;;;;72.20;19.67;;;12.90;99.90;;;;;;5020900;28;20668;-85
2022/10/26 00:07:47;;;;;;;75.93;20.73;;;12.90;99.90;;;;;;5019008;28;20416;-85
2022/10/26 00:10:13;;;;;;;74.57;19.30;;;12.80;99.90;;;;;;5020333;28;20433;-85
2022/10/26 00:12:38;;;;;;;73.30;19.70;;;12.80;99.90;;;;;;5035605;28;20408;-86
2022/10/26 00:15:05;;;;;;;71.70;18.47;;;12.70;99.90;;;;;;5018845;28;20664;-85
2022/10/26 00:17:31;;;;;;;72.10;17.95;;;12.80;99.90;;;;;;5020183;28;20405;-85
2022/10/26 00:19:56;;;;;;;73.23;22.00;;;12.80;99.90;;;;;;5018538;28;20189;-85
2022/10/26 00:22:22;;;;;;;74.40;20.83;;;12.80;99.90;;;;;;5020231;28;20189;-85
2022/10/26 00:24:48;;;;;;;71.33;19.17;;;12.80;99.90;;;;;;5020162;28;20253;-85
2022/10/26 00:27:14;;;;;;;74.33;17.87;;;12.80;99.90;;;;;;5020675;28;20428;-85
2022/10/26 00:29:40;;;;;;;76.13;21.07;;;12.80;99.90;;;;;;5035725;28;20190;-85
2022/10/26 00:32:06;;;;;;;72.27;19.70;;;12.80;99.90;;;;;;5019681;28;20240;-85
2022/10/26 00:34:31;;;;;;;75.50;18.90;;;12.80;99.90;;;;;;5019803;28;20170;-85
2022/10/26 00:36:57;;;;;;;70.93;17.50;;;12.80;99.90;;;;;;5018379;28;20496;-85
2022/10/26 00:39:23;;;;;;;75.50;18.90;;;12.80;99.90;;;;;;5018385;28;20194;-85
2022/10/26 00:41:49;;;;;;;72.07;20.60;;;12.70;99.90;;;;;;5018566;28;20166;-86
2022/10/26 00:45:00;;;;;;;75.80;24.30;;;12.70;99.90;;;;;;5021312;28;20584;-85
2022/10/26 00:47:55;;;;;;;75.40;21.20;;;12.60;99.90;;;;;;5020105;28;20396;-85
2022/10/26 00:50:36;;;;;;;71.20;16.63;;;12.70;99.90;;;;;;5021712;28;20436;-85
2022/10/26 00:53:05;;;;;;;81.47;18.27;;;12.70;99.90;;;;;;5021334;28;20392;-85
2022/10/26 00:55:37;;;;;;;73.10;20.45;;;12.70;99.90;;;;;;5022604;28;20174;-86
2022/10/26 00:58:05;;;;;;;78.77;24.57;;;12.70;99.90;;;;;;5022469;28;20178;-85
2022/10/26 01:00:31;;;;;;;71.50;19.83;;;12.70;99.90;;;;;;5022399;28;20986;-85
2022/10/26 01:03:01;;;;;;;76.97;24.23;;;12.70;99.90;;;;;;5021674;28;20409;-85
2022/10/26 01:05:27;;;;;;;73.23;19.23;;;12.70;99.90;;;;;;5022363;28;20412;-85
2022/10/26 01:07:53;;;;;;;76.57;19.87;;;12.80;99.90;;;;;;5023141;28;20526;-85
2022/10/26 01:10:20;;;;;;;74.38;17.33;;;12.80;99.90;;;;;;5021687;28;20445;-85
2022/10/26 01:12:46;;;;;;;74.38;18.58;;;12.80;99.90;;;;;;5021852;28;20261;-85
2022/10/26 01:15:12;;;;;;;70.40;17.83;;;12.90;99.90;;;;;;5022821;28;20257;-85
2022/10/26 01:17:44;;;;;;;72.55;21.38;;;12.90;99.90;;;;;;5021551;28;20412;-85
2022/10/26 01:20:28;;;;;;;73.27;23.67;;;12.90;99.90;;;;;;5021282;28;20193;-85
2022/10/26 01:22:57;;;;;;;71.43;22.30;;;12.90;99.90;;;;;;5022295;28;20419;-85
2022/10/26 01:26:04;;;;;;;75.80;25.40;;;12.90;99.90;;;;;;5021821;28;20165;-85
2022/10/26 01:28:49;;;;;;;75.17;22.07;;;12.80;99.90;;;;;;5021614;28;20998;-85
2022/10/26 01:31:25;;;;;;;72.97;27.50;;;12.80;99.90;;;;;;5022903;28;20401;-85
2022/10/26 01:34:03;;;;;;;74.10;29.25;;;12.90;99.90;;;;;;5021378;28;20884;-85
2022/10/26 01:36:45;;;;;;;82.72;23.98;;;12.90;99.90;;;;;;5021283;28;20172;-85
2022/10/26 01:39:28;;;;;;;73.75;24.38;;;12.90;99.90;;;;;;5022301;28;20189;-86
2022/10/26 01:42:00;;;;;;;76.30;25.58;;;12.90;99.90;;;;;;5021042;28;20177;-85
2022/10/26 01:44:41;;;;;;;74.85;27.95;;;12.90;99.90;;;;;;5020827;28;20165;-85
2022/10/26 01:47:10;;;;;;;80.40;23.48;;;12.90;99.90;;;;;;5021222;28;20168;-86
2022/10/26 01:49:41;;;;;;;74.83;26.70;;;13.00;99.90;;;;;;5022247;28;20614;-85
2022/10/26 01:52:10;;;;;;;73.90;27.80;;;13.00;99.90;;;;;;5022641;28;20865;-85
2022/10/26 01:54:44;;;;;;;72.60;24.52;;;13.00;99.90;;;;;;5022145;28;20311;-86
2022/10/26 01:57:13;;;;;;;72.10;24.27;;;13.00;99.90;;;;;;5022374;28;20237;-85
2022/10/26 02:00:00;;;;;;;75.68;25.65;;;13.00;99.90;;;;;;5021174;28;20512;-85
2022/10/26 02:02:54;;;;;;;71.95;23.05;;;13.00;99.90;;;;;;5021110;28;20158;-85
2022/10/26 02:05:25;;;;;;;72.47;21.17;;;12.90;99.90;;;;;;5020649;28;20165;-85
2022/10/26 02:08:12;;;;;;;72.15;25.60;;;13.00;99.90;;;;;;5020283;28;20217;-85
2022/10/26 02:10:50;;;;;;;75.38;29.17;;;13.00;99.90;;;;;;5020403;28;20192;-85
2022/10/26 02:13:18;;;;;;;71.10;18.60;;;13.00;99.90;;;;;;5021552;28;20653;-85
2022/10/26 02:15:55;;;;;;;75.38;23.25;;;13.00;99.90;;;;;;5020135;28;20169;-85
2022/10/26 02:18:29;;;;;;;76.87;26.43;;;13.00;99.90;;;;;;5019971;28;20204;-85
2022/10/26 02:21:02;;;;;;;76.93;28.15;;;13.00;99.90;;;;;;5020224;28;20490;-85
2022/10/26 02:23:30;;;;;;;72.88;20.35;;;13.00;99.90;;;;;;5020682;28;20182;-85
2022/10/26 02:25:58;;;;;;;76.10;27.42;;;13.10;99.90;;;;;;5020241;28;20197;-85
2022/10/26 02:28:34;;;;;;;76.90;25.67;;;13.20;99.90;;;;;;5020246;28;20210;-85
2022/10/26 02:31:02;;;;;;;72.77;25.17;;;13.20;99.90;;;;;;5021753;28;20385;-85
2022/10/26 02:33:32;;;;;;;71.80;20.60;;;13.20;99.90;;;;;;5020745;28;20437;-85
2022/10/26 02:36:01;;;;;;;73.07;24.80;;;13.20;99.90;;;;;;5021040;28;20408;-86
2022/10/26 02:38:29;;;;;;;74.90;29.20;;;13.10;99.90;;;;;;5020407;28;20487;-85
2022/10/26 02:40:56;;;;;;;75.20;27.58;;;13.10;99.90;;;;;;5019627;28;20459;-85
2022/10/26 02:43:23;;;;;;;75.03;29.90;;;13.10;99.90;;;;;;5021104;28;20162;-85
2022/10/26 02:46:04;;;;;;;78.45;40.65;;;13.10;99.90;;;;;;5019529;28;20634;-86
2022/10/26 02:48:30;;;;;;;78.90;30.67;;;13.00;99.90;;;;;;5019736;28;20194;-85
2022/10/26 02:51:02;;;;;;;74.83;28.50;;;13.00;99.90;;;;;;5019296;28;20428;-86
2022/10/26 02:53:37;;;;;;;74.87;25.23;;;13.10;99.90;;;;;;5020576;28;20857;-85
2022/10/26 02:56:09;;;;;;;74.03;23.75;;;13.10;99.90;;;;;;5020838;28;20393;-85
2022/10/26 02:58:41;;;;;;;81.20;34.90;;;13.10;99.90;;;;;;5018925;28;20276;-86
2022/10/26 03:01:07;;;;;;;76.15;28.05;;;13.10;99.90;;;;;;5019220;28;20208;-85
2022/10/26 03:03:33;;;;;;;76.87;29.67;;;13.10;99.90;;;;;;5020103;28;20162;-85
2022/10/26 03:05:59;;;;;;;79.97;33.08;;;13.10;99.90;;;;;;5019871;28;20436;-85
2022/10/26 03:08:24;;;;;;;74.20;29.73;;;13.10;99.90;;;;;;5020694;28;20197;-86
2022/10/26 03:10:50;;;;;;;79.27;31.13;;;13.10;99.90;;;;;;5020610;28;20170;-85
2022/10/26 03:13:16;;;;;;;76.00;26.23;;;13.20;99.90;;;;;;5020445;28;20174;-85
2022/10/26 03:15:41;;;;;;;76.00;30.53;;;13.20;99.90;;;;;;5019659;28;20166;-85
2022/10/26 03:18:07;;;;;;;75.23;24.07;;;13.20;99.90;;;;;;5019365;28;20227;-86
2022/10/26 03:20:33;;;;;;;87.53;29.35;;;13.20;99.90;;;;;;5018978;28;20284;-85
2022/10/26 03:22:59;;;;;;;75.33;27.03;;;13.20;99.90;;;;;;5018886;28;20231;-85
2022/10/26 03:25:25;;;;;;;73.83;23.60;;;13.20;99.90;;;;;;5020108;28;20540;-86
2022/10/26 03:28:01;;;;;;;72.03;23.07;;;13.30;99.90;;;;;;5020717;28;20525;-86
2022/10/26 03:30:28;;;;;;;75.73;24.70;;;13.20;99.90;;;;;;5020444;28;20515;-85
2022/10/26 03:32:54;;;;;;;76.83;23.63;;;13.20;99.90;;;;;;5020685;28;20404;-85
2022/10/26 03:35:20;;;;;;;75.05;25.40;;;13.30;99.90;;;;;;5019400;28;20415;-86
2022/10/26 03:37:46;;;;;;;75.47;22.90;;;13.30;99.90;;;;;;5019370;28;20587;-85
2022/10/26 03:40:12;;;;;;;72.90;18.70;;;13.30;99.90;;;;;;5035598;28;20476;-86
2022/10/26 03:42:38;;;;;;;73.73;23.60;;;13.30;99.90;;;;;;5021012;28;20170;-85
2022/10/26 03:45:06;;;;;;;75.57;29.83;;;13.30;99.90;;;;;;5019883;28;20405;-86
2022/10/26 03:47:32;;;;;;;74.83;24.70;;;13.30;99.90;;;;;;5018767;28;20409;-85
2022/10/26 03:49:58;;;;;;;78.77;29.47;;;13.30;99.90;;;;;;5020699;28;20424;-85
2022/10/26 03:52:24;;;;;;;75.75;29.25;;;13.40;99.90;;;;;;5020101;28;20405;-85
2022/10/26 03:54:51;;;;;;;74.80;26.60;;;13.40;99.90;;;;;;5020094;28;20174;-85
2022/10/26 03:57:17;;;;;;;78.80;27.60;;;13.40;99.90;;;;;;5018552;28;20193;-85
2022/10/26 03:59:43;;;;;;;76.00;30.07;;;13.40;99.90;;;;;;5020152;28;20500;-86
2022/10/26 04:02:08;;;;;;;76.17;27.20;;;13.40;99.90;;;;;;5019768;28;20405;-86
2022/10/26 04:04:34;;;;;;;74.57;28.33;;;13.40;99.90;;;;;;5019367;28;20170;-85
2022/10/26 04:07:00;;;;;;;74.87;22.80;;;13.50;99.90;;;;;;5019199;28;20166;-86
2022/10/26 04:09:25;;;;;;;73.27;23.07;;;13.50;99.90;;;;;;5020191;28;20213;-86
2022/10/26 04:11:51;;;;;;;74.80;25.87;;;13.50;99.90;;;;;;5018347;28;20228;-86
2022/10/26 04:14:16;;;;;;;74.73;26.53;;;13.50;99.90;;;;;;5018634;28;20170;-85
2022/10/26 04:16:42;;;;;;;74.60;27.30;;;13.50;99.90;;;;;;5020150;28;20166;-86
2022/10/26 04:19:11;;;;;;;73.10;24.60;;;13.50;99.90;;;;;;5022792;28;20247;-85
2022/10/26 04:21:37;;;;;;;74.30;27.87;;;13.60;99.90;;;;;;5023004;28;20226;-85
2022/10/26 04:24:03;;;;;;;76.50;28.23;;;13.60;99.90;;;;;;5023074;28;20499;-86
2022/10/26 04:26:28;;;;;;;75.77;26.63;;;13.50;99.90;;;;;;5024184;28;20222;-86
2022/10/26 04:28:54;;;;;;;76.17;28.07;;;13.60;99.90;;;;;;5021800;28;20429;-86
2022/10/26 04:31:19;;;;;;;77.90;23.27;;;13.60;99.90;;;;;;5023435;28;20538;-85
2022/10/26 04:33:45;;;;;;;77.07;25.53;;;13.60;99.90;;;;;;5023036;28;20190;-85
2022/10/26 04:36:11;;;;;;;75.40;25.17;;;13.60;99.90;;;;;;5022370;28;20170;-86
2022/10/26 04:38:36;;;;;;;73.40;23.60;;;13.60;99.90;;;;;;5038142;28;20193;-85
2022/10/26 04:41:02;;;;;;;72.23;24.10;;;13.60;99.90;;;;;;5023346;28;20197;-86
2022/10/26 04:43:28;;;;;;;73.87;22.40;;;13.60;99.90;;;;;;5022388;28;20178;-85
2022/10/26 04:45:57;;;;;;;74.67;21.00;;;13.60;99.90;;;;;;5022456;28;20939;-85
2022/10/26 04:48:23;;;;;;;73.50;23.90;;;13.70;99.90;;;;;;5021900;28;20177;-85
2022/10/26 04:50:49;;;;;;;73.20;22.80;;;13.70;99.90;;;;;;5023480;28;20904;-85
2022/10/26 04:53:15;;;;;;;72.40;24.07;;;13.60;99.90;;;;;;5023374;28;20443;-85
2022/10/26 04:55:41;;;;;;;74.20;21.53;;;13.70;99.90;;;;;;5021871;28;20169;-85
2022/10/26 04:58:07;;;;;;;72.90;22.03;;;13.70;99.90;;;;;;5021534;28;20428;-85
2022/10/26 05:00:33;;;;;;;71.27;21.63;;;13.70;99.90;;;;;;5022398;28;20197;-85
2022/10/26 05:03:04;;;;;;;73.37;20.20;;;13.70;99.90;;;;;;5021875;28;20173;-85
2022/10/26 05:05:33;;;;;;;73.90;23.93;;;13.70;99.90;;;;;;5021727;28;20419;-85
2022/10/26 05:07:59;;;;;;;70.97;21.27;;;13.70;99.90;;;;;;5020947;28;20405;-85
2022/10/26 05:10:26;;;;;;;75.67;20.20;;;13.70;99.90;;;;;;5022825;28;20443;-85
2022/10/26 05:12:56;;;;;;;77.67;20.33;;;13.70;99.90;;;;;;5022486;28;20178;-85
2022/10/26 05:15:22;;;;;;;72.00;23.40;;;13.70;99.90;;;;;;5022826;28;20385;-85
2022/10/26 05:18:00;;;;;;;73.00;25.63;;;13.70;99.90;;;;;;5023537;28;20413;-85
2022/10/26 05:20:29;;;;;;;74.87;26.70;;;13.70;99.90;;;;;;5022511;28;20194;-85
2022/10/26 05:22:56;;;;;;;73.20;17.37;;;13.80;99.90;;;;;;5108094;22;20578;-86
2022/10/26 05:25:22;;;;;;;72.90;20.97;;;13.80;99.90;;;;;;5045764;28;20402;-84
2022/10/26 05:27:47;;;;;;;76.60;21.07;;;13.80;99.90;;;;;;5045009;28;20404;-84
2022/10/26 05:30:13;;;;;;;71.57;17.20;;;13.90;99.90;;;;;;5044559;28;20192;-84
2022/10/26 05:32:39;;;;;;;73.10;22.77;;;13.90;99.90;;;;;;5042376;28;20233;-84
2022/10/26 05:35:05;;;;;;;72.90;23.57;;;13.90;99.90;;;;;;5061072;28;20256;-84
2022/10/26 05:37:30;;;;;;;72.27;22.00;;;13.90;99.90;;;;;;5047507;28;20165;-84
2022/10/26 05:39:56;;;;;;;71.07;19.53;;;13.90;99.90;;;;;;5046136;28;20468;-84
2022/10/26 05:42:22;;;;;;;81.43;19.77;;;13.90;99.90;;;;;;5047177;28;20260;-84
2022/10/26 05:44:50;;;;;;;77.07;25.40;;;13.90;99.90;;;;;;5048007;28;20165;-84
2022/10/26 05:47:15;;;;;;;73.27;21.70;;;13.90;99.90;;;;;;5048380;28;20252;-84
2022/10/26 05:49:41;;;;;;;75.00;22.77;;;13.90;99.90;;;;;;5048283;28;20803;-84
2022/10/26 05:52:07;;;;;;;72.67;18.50;;;13.90;99.90;;;;;;5047847;28;20173;-84
2022/10/26 05:54:33;;;;;;;71.60;17.30;;;14.00;99.90;;;;;;5063839;28;20173;-84
2022/10/26 05:56:59;;;;;;;70.60;17.60;;;14.00;99.90;;;;;;5047168;28;20636;-84
2022/10/26 05:59:25;;;;;;;70.67;18.53;;;14.00;99.90;;;;;;5047646;28;20448;-84
2022/10/26 06:02:10;;;;;;;73.90;20.27;;;14.00;99.90;;;;;;5048160;28;20404;-84
2022/10/26 06:04:40;;;;;;;73.40;17.13;;;14.00;99.90;;;;;;5046775;28;20372;-84
2022/10/26 06:07:12;;;;;;;78.60;18.73;;;14.00;99.90;;;;;;5047521;28;20403;-84
2022/10/26 06:09:39;;;;;;;71.87;13.47;;;14.00;99.90;;;;;;5046633;28;20538;-84
2022/10/26 06:12:06;;;;;;;72.17;16.47;;;13.90;99.90;;;;;;5046737;28;20416;-84
2022/10/26 06:14:33;;;;;;;77.93;24.05;;;13.90;99.90;;;;;;5044451;28;20432;-85
2022/10/26 06:17:36;;;;;;;77.60;23.50;;;13.90;99.90;;;;;;5045334;28;20204;-85
2022/10/26 06:20:28;;;;;;;72.63;19.60;;;13.80;99.90;;;;;;5033636;28;20486;-85
2022/10/26 06:23:13;;;;;;;73.27;18.63;;;13.80;99.90;;;;;;5045610;28;20441;-85
2022/10/26 06:26:26;;;;;;;74.27;15.07;;;13.80;99.90;;;;;;5047237;28;20392;-85
2022/10/26 06:29:17;;;;;;;70.00;13.83;;;13.90;99.90;;;;;;5042640;28;20453;-85
2022/10/26 06:31:43;;;;;;;70.70;16.70;;;13.90;99.90;;;;;;5047839;28;20530;-85
2022/10/26 06:34:11;;;;;;;72.23;21.10;;;13.90;99.90;;;;;;5047955;28;20442;-85
2022/10/26 06:36:39;;;;;;;87.00;26.47;;;13.90;99.90;;;;;;5046471;28;20887;-85
2022/10/26 06:39:09;;;;;;;76.73;29.47;;;13.80;99.90;;;;;;5045486;28;20464;-84
2022/10/26 06:41:36;;;;;;;79.60;32.13;;;13.80;99.90;;;;;;5044271;28;20391;-84
2022/10/26 06:44:02;;;;;;;78.43;30.27;;;13.80;99.90;;;;;;5045250;28;20442;-84
2022/10/26 06:46:46;;;;;;;79.73;33.77;;;13.80;99.90;;;;;;5045984;28;20411;-84
2022/10/26 06:49:24;;;;;;;83.93;40.00;;;13.80;99.90;;;;;;5046419;28;20428;-84
2022/10/26 06:51:55;;;;;;;84.60;45.57;;;13.70;99.90;;;;;;5046698;28;20403;-85
2022/10/26 06:54:36;;;;;;;86.40;44.80;;;13.80;99.90;;;;;;5046301;28;20383;-85
2022/10/26 06:57:02;;;;;;;86.47;47.57;;;13.70;99.90;;;;;;5046620;28;20416;-84
2022/10/26 06:59:49;;;;;;;83.83;48.50;;;13.70;99.90;;;;;;5044080;28;20523;-85
2022/10/26 07:02:15;;;;;;;81.37;46.07;;;13.70;99.90;;;;;;5042561;28;20410;-84
2022/10/26 07:04:42;;;;;;;83.57;47.90;;;13.70;99.90;;;;;;5043100;28;20392;-84
2022/10/26 07:07:25;;;;;;;83.90;47.13;;;13.70;99.90;;;;;;5042373;28;20396;-84
2022/10/26 07:09:51;;;;;;;78.20;38.40;;;13.70;99.90;;;;;;5042541;28;20424;-84
2022/10/26 07:12:17;;;;;;;77.10;33.00;;;13.80;99.90;;;;;;5042594;28;20439;-84
2022/10/26 07:14:43;;;;;;;81.33;34.23;;;13.80;99.90;;;;;;5042029;28;20892;-84
2022/10/26 07:17:09;;;;;;;80.23;37.67;;;13.80;99.90;;;;;;5042951;28;20196;-83
2022/10/26 07:19:35;;;;;;;77.40;32.67;;;13.80;99.90;;;;;;5042502;28;20471;-83
2022/10/26 07:22:01;;;;;;;80.70;33.50;;;13.90;99.90;;;;;;5042822;28;20423;-84
2022/10/26 07:24:27;;;;;;;77.07;33.87;;;13.80;99.90;;;;;;5041209;28;20162;-84
2022/10/26 07:26:54;;;;;;;78.90;32.80;;;13.90;99.90;;;;;;5044320;28;20377;-84
2022/10/26 07:29:22;;;;;;;85.00;33.00;;;13.90;99.90;;;;;;5045773;28;20847;-83
2022/10/26 07:31:47;;;;;;;76.67;25.90;;;13.90;99.90;;;;;;5045477;28;20418;-84
2022/10/26 07:34:13;;;;;;;77.87;28.83;;;13.90;99.90;;;;;;5045374;28;20400;-84
2022/10/26 07:36:38;;;;;;;83.50;34.17;;;13.90;99.90;;;;;;5045327;28;20694;-84
2022/10/26 07:39:05;;;;;;;79.63;24.10;;;14.00;99.90;;;;;;5040686;28;20656;-84
2022/10/26 07:41:31;;;;;;;73.20;20.67;;;14.00;99.90;;;;;;5041286;28;20181;-84
2022/10/26 07:43:57;;;;;;;78.07;31.30;;;14.10;99.90;;;;;;5042294;28;20402;-86
2022/10/26 07:46:23;;;;;;;78.70;26.40;;;14.10;99.90;;;;;;5042459;28;20165;-84
2022/10/26 07:48:49;;;;;;;77.53;29.03;;;14.10;99.90;;;;;;5041931;28;20189;-84
2022/10/26 07:51:14;;;;;;;86.53;25.57;;;14.10;99.90;;;;;;5041806;28;20465;-84
2022/10/26 07:53:40;;;;;;;84.20;24.00;;;14.00;99.90;;;;;;5044060;28;20161;-84
2022/10/26 07:56:06;;;;;;;76.03;24.60;;;14.00;99.90;;;;;;5042730;28;20165;-84
2022/10/26 07:58:33;;;;;;;79.70;26.77;;;14.00;99.90;;;;;;5042224;28;20272;-83
2022/10/26 08:01:12;;;;;;;79.30;30.67;;;14.00;99.90;;;;;;5043758;28;20450;-84
2022/10/26 08:03:38;;;;;;;79.67;29.20;;;14.00;99.90;;;;;;5041408;28;20408;-84
2022/10/26 08:06:04;;;;;;;78.80;29.97;;;14.10;99.90;;;;;;5041615;28;20411;-84
2022/10/26 08:08:30;;;;;;;77.23;25.03;;;14.20;99.90;;;;;;5042729;28;20416;-83
2022/10/26 08:10:57;;;;;;;76.37;24.33;;;14.20;99.90;;;;;;5042484;28;20404;-84
2022/10/26 08:13:23;;;;;;;81.60;22.43;;;14.20;99.90;;;;;;5044222;28;20414;-83
2022/10/26 08:15:49;;;;;;;76.17;18.93;;;14.20;99.90;;;;;;5043253;28;20467;-83
2022/10/26 08:18:14;;;;;;;76.03;14.57;;;14.30;99.90;;;;;;5044408;28;20572;-84
2022/10/26 08:20:40;;;;;;;71.10;13.40;;;14.40;99.90;;;;;;5045196;28;20451;-84
2022/10/26 08:23:07;;;;;;;70.17;12.20;;;14.40;99.90;;;;;;5045788;28;20188;-84
2022/10/26 08:25:33;;;;;;;73.60;15.30;;;14.50;99.90;;;;;;5042860;28;20153;-84
2022/10/26 08:28:03;;;;;;;71.90;17.20;;;14.50;99.90;;;;;;5043557;28;20745;-84
2022/10/26 08:30:30;;;;;;;71.50;13.67;;;14.60;99.90;;;;;;5043267;28;20511;-84
2022/10/26 08:33:02;;;;;;;76.60;14.77;;;14.70;99.90;;;;;;5044883;28;20418;-84
2022/10/26 08:35:29;;;;;;;68.77;12.70;;;14.80;99.90;;;;;;5043640;28;20756;-84
2022/10/26 08:37:54;;;;;;;69.57;11.47;;;14.90;99.90;;;;;;5042793;28;20404;-84
2022/10/26 08:40:29;;;;;;;71.47;12.97;;;15.10;99.90;;;;;;5040304;28;20502;-85
2022/10/26 08:43:03;;;;;;;72.30;16.90;;;15.30;99.90;;;;;;5042270;28;20160;-84
2022/10/26 08:45:34;;;;;;;70.13;15.73;;;15.40;99.90;;;;;;5042911;28;20411;-84
2022/10/26 08:48:11;;;;;;;70.53;14.43;;;15.50;99.90;;;;;;5044987;28;20416;-84
2022/10/26 08:50:54;;;;;;;68.67;9.23;;;15.50;99.90;;;;;;5044983;28;20384;-84
2022/10/26 08:53:28;;;;;;;71.10;13.23;;;15.50;99.90;;;;;;5043050;28;20456;-84
2022/10/26 08:56:02;;;;;;;68.80;11.90;;;15.60;99.90;;;;;;5039732;28;20383;-84
2022/10/26 08:58:37;;;;;;;69.53;10.57;;;15.60;99.90;;;;;;5042711;28;20471;-84
2022/10/26 09:01:06;;;;;;;70.27;8.50;;;15.70;99.90;;;;;;5044280;28;20424;-84
2022/10/26 09:03:32;;;;;;;74.57;8.33;;;15.60;99.90;;;;;;5045611;28;20400;-84
2022/10/26 09:06:19;;;;;;;67.60;8.67;;;15.50;99.90;;;;;;5047873;28;20899;-85
2022/10/26 09:09:14;;;;;;;67.93;7.37;;;15.50;99.90;;;;;;5047207;28;20193;-84
2022/10/26 09:11:49;;;;;;;67.37;5.03;;;15.60;99.90;;;;;;5042958;28;20388;-84
2022/10/26 09:14:34;;;;;;;73.63;5.50;;;15.70;99.90;;;;;;5042545;28;20450;-83
2022/10/26 09:17:32;;;;;;;70.60;5.97;;;15.70;99.90;;;;;;5040657;28;20726;-84
2022/10/26 09:20:05;;;;;;;66.10;5.20;;;15.80;99.90;;;;;;5041527;28;20447;-84
2022/10/26 09:22:57;;;;;;;68.50;6.70;;;15.80;99.90;;;;;;5044627;28;20484;-84
2022/10/26 09:25:29;;;;;;;71.30;7.47;;;15.70;99.90;;;;;;5045278;28;20417;-84
2022/10/26 09:27:59;;;;;;;68.83;6.43;;;15.70;99.90;;;;;;5062031;28;20432;-84
2022/10/26 09:30:25;;;;;;;68.03;5.87;;;15.80;99.90;;;;;;5042807;28;20421;-84
2022/10/26 09:33:23;;;;;;;67.97;5.80;;;15.90;99.90;;;;;;5046530;28;20410;-84
2022/10/26 09:36:06;;;;;;;65.73;5.33;;;15.90;99.90;;;;;;5045629;28;20190;-84
2022/10/26 09:38:45;;;;;;;67.53;5.90;;;16.00;99.90;;;;;;5060067;28;20461;-84
2022/10/26 09:41:36;;;;;;;67.47;5.33;;;16.20;99.90;;;;;;5045021;28;20472;-84
2022/10/26 09:44:04;;;;;;;67.83;6.30;;;16.30;99.90;;;;;;5042303;28;20412;-83
2022/10/26 09:46:56;;;;;;;65.80;4.90;;;16.40;99.90;;;;;;5041433;28;20400;-84
2022/10/26 09:49:32;;;;;;;70.43;6.13;;;16.50;99.90;;;;;;5042088;28;20933;-83
2022/10/26 09:51:58;;;;;;;70.10;5.30;;;16.60;99.90;;;;;;5039122;28;20404;-83
2022/10/26 09:54:26;;;;;;;69.80;7.23;;;16.70;99.90;;;;;;5039110;28;20437;-83
2022/10/26 09:56:56;;;;;;;67.73;7.80;;;17.00;99.90;;;;;;5041661;28;20840;-84
2022/10/26 09:59:32;;;;;;;71.63;7.70;;;17.10;99.90;;;;;;5038822;28;20459;-83
2022/10/26 10:01:58;;;;;;;69.60;7.70;;;17.10;99.90;;;;;;5039235;28;20511;-83
2022/10/26 10:04:24;;;;;;;71.80;11.47;;;17.10;99.90;;;;;;5038183;28;20432;-83
2022/10/26 10:06:59;;;;;;;68.83;8.63;;;17.40;99.90;;;;;;5038941;28;20171;-83
2022/10/26 10:09:25;;;;;;;65.87;7.80;;;17.40;99.90;;;;;;5036639;28;20429;-83
2022/10/26 10:11:58;;;;;;;67.10;9.03;;;17.50;99.90;;;;;;5053761;28;20439;-83
2022/10/26 10:14:28;;;;;;;67.87;8.73;;;17.70;99.90;;;;;;5031127;28;20919;-83
2022/10/26 10:16:59;;;;;;;69.03;8.20;;;17.70;99.90;;;;;;5038507;28;20896;-83
2022/10/26 10:19:37;;;;;;;70.80;8.57;;;17.80;99.90;;;;;;5040844;28;20460;-83
2022/10/26 10:22:23;;;;;;;65.97;5.80;;;17.90;99.90;;;;;;5040009;28;20443;-83
2022/10/26 10:25:21;;;;;;;70.00;8.00;;;18.10;99.90;;;;;;5039180;28;20412;-83
2022/10/26 10:27:53;;;;;;;72.13;6.63;;;18.20;99.90;;;;;;5055141;28;20417;-83
2022/10/26 10:30:21;;;;;;;66.43;6.80;;;18.50;99.90;;;;;;5040165;28;20428;-83
2022/10/26 10:33:04;;;;;;;68.37;10.07;;;18.70;99.90;;;;;;5040346;28;20444;-83
2022/10/26 10:35:30;;;;;;;76.43;9.87;;;18.70;99.90;;;;;;5038271;28;20392;-83
2022/10/26 10:37:56;;;;;;;70.37;16.43;;;18.80;99.90;;;;;;5039904;28;20408;-83
2022/10/26 10:40:24;;;;;;;71.53;18.00;;;19.00;99.90;;;;;;5040362;28;20538;-83
2022/10/26 10:42:52;;;;;;;74.97;20.97;;;19.10;99.90;;;;;;5040183;28;20454;-83
2022/10/26 10:45:31;;;;;;;79.57;21.97;;;19.40;99.90;;;;;;5039744;28;20462;-83
2022/10/26 10:48:01;;;;;;;70.47;17.60;;;19.40;99.90;;;;;;5039550;28;20391;-83
2022/10/26 10:50:28;;;;;;;81.20;15.53;;;19.50;99.90;;;;;;5040367;28;20455;-83
2022/10/26 10:53:23;;;;;;;73.00;19.10;;;19.50;99.90;;;;;;5037708;28;20455;-83
2022/10/26 10:56:26;;;;;;;72.60;16.93;;;19.80;99.90;;;;;;5040263;28;20893;-83
2022/10/26 10:59:06;;;;;;;72.03;16.43;;;20.00;99.90;;;;;;5055249;28;20435;-82
2022/10/26 11:01:38;;;;;;;67.93;8.43;;;20.20;99.90;;;;;;5040189;28;20407;-83
2022/10/26 11:04:18;;;;;;;67.87;6.10;;;20.40;99.30;;;;;;5039828;28;20386;-83
2022/10/26 11:06:45;;;;;;;66.00;4.50;;;20.40;95.90;;;;;;5038058;28;20868;-83
2022/10/26 11:09:15;;;;;;;68.00;4.37;;;20.50;96.50;;;;;;5040898;28;20416;-83
2022/10/26 11:11:49;;;;;;;65.40;2.87;;;20.50;90.80;;;;;;5040759;28;20391;-83
2022/10/26 11:14:41;;;;;;;66.10;3.73;;;20.60;89.50;;;;;;5040092;28;20407;-83
2022/10/26 11:17:18;;;;;;;66.17;2.87;;;20.60;90.00;;;;;;5040012;28;20443;-83
2022/10/26 11:20:18;;;;;;;65.50;3.17;;;20.70;87.90;;;;;;5038429;28;20459;-83
2022/10/26 11:22:57;;;;;;;65.97;3.00;;;20.70;80.40;;;;;;5105641;23;20522;-87
2022/10/26 11:25:52;;;;;;;65.13;2.83;;;20.60;68.50;;;;;;5045562;28;20393;-86
2022/10/26 11:28:32;;;;;;;65.90;2.60;;;20.70;67.50;;;;;;5044919;28;20428;-86
2022/10/26 11:31:05;;;;;;;66.07;2.93;;;20.80;77.40;;;;;;5043096;28;20378;-86
2022/10/26 11:33:43;;;;;;;65.03;3.23;;;21.00;74.90;;;;;;5044670;28;20471;-86
2022/10/26 11:36:16;;;;;;;65.93;3.00;;;21.10;64.60;;;;;;5045197;28;20374;-86
2022/10/26 11:38:50;;;;;;;67.87;4.00;;;21.20;57.60;;;;;;5060061;28;20502;-86
2022/10/26 11:41:26;;;;;;;65.83;3.20;;;21.20;54.50;;;;;;5042446;28;20469;-86
2022/10/26 11:44:12;;;;;;;65.30;2.70;;;21.20;55.90;;;;;;5044525;28;20389;-86
2022/10/26 11:46:43;;;;;;;65.57;3.20;;;21.30;56.20;;;;;;5043651;28;20441;-86
2022/10/26 11:49:37;;;;;;;66.50;2.70;;;21.30;45.10;;;;;;5043346;28;20420;-86
2022/10/26 11:52:06;;;;;;;68.20;2.93;;;21.40;47.80;;;;;;5045000;28;20401;-86
2022/10/26 11:54:34;;;;;;;68.07;3.07;;;21.50;43.60;;;;;;5044805;28;20403;-86
2022/10/26 11:57:02;;;;;;;65.17;2.80;;;21.50;48.30;;;;;;5044286;28;20401;-86
2022/10/26 11:59:31;;;;;;;67.00;3.40;;;21.60;43.00;;;;;;5044250;28;20465;-86
2022/10/26 12:02:03;;;;;;;65.93;4.13;;;21.50;42.50;;;;;;5042952;28;20403;-86
2022/10/26 12:04:32;;;;;;;66.70;3.90;;;21.50;40.70;;;;;;5043966;28;20444;-86
2022/10/26 12:07:01;;;;;;;66.23;4.40;;;21.40;38.00;;;;;;5043408;28;20427;-86
2022/10/26 12:09:33;;;;;;;66.70;3.17;;;21.40;45.40;;;;;;5043535;28;20431;-86
2022/10/26 12:12:29;;;;;;;67.97;3.63;;;21.40;45.40;;;;;;5044334;28;20386;-86
2022/10/26 12:15:06;;;;;;;65.47;3.73;;;21.40;46.00;;;;;;5033571;28;20423;-86
2022/10/26 12:17:42;;;;;;;66.00;3.47;;;21.40;45.90;;;;;;5044441;28;20440;-87
2022/10/26 12:20:48;;;;;;;72.83;5.00;;;21.40;47.50;;;;;;5044176;28;20460;-86
2022/10/26 12:23:14;;;;;;;65.87;3.97;;;21.40;40.40;;;;;;5043426;28;20490;-86
2022/10/26 12:25:40;;;;;;;68.00;5.23;;;21.30;47.00;;;;;;5044758;28;20409;-86
2022/10/26 12:28:35;;;;;;;67.20;4.10;;;21.30;43.50;;;;;;5044549;28;20402;-85
2022/10/26 12:31:31;;;;;;;68.80;4.87;;;21.20;47.80;;;;;;5045417;28;20555;-86
2022/10/26 12:33:59;;;;;;;66.97;3.63;;;21.10;47.60;;;;;;5043770;28;20481;-86
2022/10/26 12:37:10;;;;;;;64.70;2.47;;;21.00;50.20;;;;;;5044010;28;20389;-86
2022/10/26 12:39:39;;;;;;;65.33;2.63;;;21.00;59.80;;;;;;5046530;28;21044;-86
2022/10/26 12:42:04;;;;;;;65.20;2.70;;;21.00;60.10;;;;;;5064349;28;20467;-85
2022/10/26 12:44:44;;;;;;;66.63;2.60;;;20.90;63.10;;;;;;5047732;28;20415;-86
2022/10/26 12:47:30;;;;;;;64.87;2.90;;;20.80;69.40;;;;;;5046457;28;20181;-86
2022/10/26 12:50:04;;;;;;;65.37;2.50;;;20.90;68.80;;;;;;5046586;28;20431;-86
2022/10/26 12:52:58;;;;;;;66.83;2.93;;;20.90;67.60;;;;;;5048408;28;20559;-86
2022/10/26 12:55:39;;;;;;;66.90;3.10;;;20.90;73.20;;;;;;5046659;28;20408;-86